sensor_id;sensor_type;location;lat;lon;timestamp;P1;durP1;ratioP1;P2;durP2;ratioP2
6513;SDS011;3290;47.716;9.070;2023-07-30T00:01:36;3.87;;;3.13;;
6513;SDS011;3290;47.716;9.070;2023-07-30T00:04:02;2.70;;;2.43;;
6513;SDS011;3290;47.716;9.070;2023-07-30T00:06:27;3.57;;;2.50;;
6513;SDS011;3290;47.716;9.070;2023-07-30T00:08:53;2.80;;;2.50;;
6513;SDS011;3290;47.716;9.070;2023-07-30T00:11:18;3.27;;;2.87;;
6513;SDS011;3290;47.716;9.070;2023-07-30T00:13:43;4.40;;;2.27;;
6513;SDS011;3290;47.716;9.070;2023-07-30T00:16:09;3.17;;;2.80;;
6513;SDS011;3290;47.716;9.070;2023-07-30T00:18:34;3.70;;;2.67;;
6513;SDS011;3290;47.716;9.070;2023-07-30T00:20:59;4.87;;;3.47;;
6513;SDS011;3290;47.716;9.070;2023-07-30T00:23:25;3.50;;;2.80;;
6513;SDS011;3290;47.716;9.070;2023-07-30T00:25:50;5.47;;;2.77;;
6513;SDS011;3290;47.716;9.070;2023-07-30T00:28:16;2.50;;;2.30;;
6513;SDS011;3290;47.716;9.070;2023-07-30T00:30:41;4.60;;;3.00;;
6513;SDS011;3290;47.716;9.070;2023-07-30T00:33:06;2.53;;;2.33;;
6513;SDS011;3290;47.716;9.070;2023-07-30T00:35:32;5.20;;;2.70;;
6513;SDS011;3290;47.716;9.070;2023-07-30T00:37:57;2.93;;;2.50;;
6513;SDS011;3290;47.716;9.070;2023-07-30T00:40:22;3.00;;;2.60;;
6513;SDS011;3290;47.716;9.070;2023-07-30T00:42:48;2.40;;;2.10;;
6513;SDS011;3290;47.716;9.070;2023-07-30T00:45:13;2.63;;;2.43;;
6513;SDS011;3290;47.716;9.070;2023-07-30T00:47:38;3.77;;;2.77;;
6513;SDS011;3290;47.716;9.070;2023-07-30T00:50:05;2.57;;;2.37;;
6513;SDS011;3290;47.716;9.070;2023-07-30T00:52:31;3.43;;;2.70;;
6513;SDS011;3290;47.716;9.070;2023-07-30T00:54:57;3.93;;;2.37;;
6513;SDS011;3290;47.716;9.070;2023-07-30T00:57:24;4.30;;;3.03;;
6513;SDS011;3290;47.716;9.070;2023-07-30T00:59:50;3.80;;;2.70;;
6513;SDS011;3290;47.716;9.070;2023-07-30T01:02:16;5.17;;;1.97;;
6513;SDS011;3290;47.716;9.070;2023-07-30T01:04:42;4.60;;;2.40;;
6513;SDS011;3290;47.716;9.070;2023-07-30T01:07:09;4.10;;;3.27;;
6513;SDS011;3290;47.716;9.070;2023-07-30T01:09:34;2.60;;;2.40;;
6513;SDS011;3290;47.716;9.070;2023-07-30T01:12:00;3.57;;;2.60;;
6513;SDS011;3290;47.716;9.070;2023-07-30T01:14:27;6.97;;;2.60;;
6513;SDS011;3290;47.716;9.070;2023-07-30T01:16:53;3.63;;;2.80;;
6513;SDS011;3290;47.716;9.070;2023-07-30T01:19:18;2.97;;;2.60;;
6513;SDS011;3290;47.716;9.070;2023-07-30T01:21:44;4.40;;;3.50;;
6513;SDS011;3290;47.716;9.070;2023-07-30T01:24:09;3.57;;;2.83;;
6513;SDS011;3290;47.716;9.070;2023-07-30T01:26:43;3.10;;;2.60;;
6513;SDS011;3290;47.716;9.070;2023-07-30T01:29:11;3.20;;;2.70;;
6513;SDS011;3290;47.716;9.070;2023-07-30T01:31:46;3.50;;;2.73;;
6513;SDS011;3290;47.716;9.070;2023-07-30T01:34:17;4.10;;;2.70;;
6513;SDS011;3290;47.716;9.070;2023-07-30T01:36:44;3.20;;;2.60;;
6513;SDS011;3290;47.716;9.070;2023-07-30T01:39:11;3.60;;;3.13;;
6513;SDS011;3290;47.716;9.070;2023-07-30T01:41:37;4.93;;;2.90;;
6513;SDS011;3290;47.716;9.070;2023-07-30T01:44:03;4.40;;;3.00;;
6513;SDS011;3290;47.716;9.070;2023-07-30T01:46:28;3.13;;;2.83;;
6513;SDS011;3290;47.716;9.070;2023-07-30T01:48:54;3.53;;;2.80;;
6513;SDS011;3290;47.716;9.070;2023-07-30T01:51:19;4.03;;;2.80;;
6513;SDS011;3290;47.716;9.070;2023-07-30T01:53:44;4.37;;;2.83;;
6513;SDS011;3290;47.716;9.070;2023-07-30T01:56:10;5.60;;;2.70;;
6513;SDS011;3290;47.716;9.070;2023-07-30T01:58:35;3.27;;;2.60;;
6513;SDS011;3290;47.716;9.070;2023-07-30T02:01:01;3.40;;;2.90;;
6513;SDS011;3290;47.716;9.070;2023-07-30T02:03:26;4.40;;;3.20;;
6513;SDS011;3290;47.716;9.070;2023-07-30T02:05:51;2.70;;;2.47;;
6513;SDS011;3290;47.716;9.070;2023-07-30T02:08:17;5.00;;;3.33;;
6513;SDS011;3290;47.716;9.070;2023-07-30T02:10:42;4.70;;;3.40;;
6513;SDS011;3290;47.716;9.070;2023-07-30T02:13:07;3.20;;;2.50;;
6513;SDS011;3290;47.716;9.070;2023-07-30T02:15:33;4.07;;;2.70;;
6513;SDS011;3290;47.716;9.070;2023-07-30T02:17:58;3.07;;;2.77;;
6513;SDS011;3290;47.716;9.070;2023-07-30T02:20:24;4.20;;;3.60;;
6513;SDS011;3290;47.716;9.070;2023-07-30T02:22:49;3.20;;;2.60;;
6513;SDS011;3290;47.716;9.070;2023-07-30T02:25:14;4.20;;;2.80;;
6513;SDS011;3290;47.716;9.070;2023-07-30T02:27:40;4.20;;;2.47;;
6513;SDS011;3290;47.716;9.070;2023-07-30T02:30:05;3.63;;;2.87;;
6513;SDS011;3290;47.716;9.070;2023-07-30T02:32:31;3.17;;;2.87;;
6513;SDS011;3290;47.716;9.070;2023-07-30T02:34:57;4.57;;;2.70;;
6513;SDS011;3290;47.716;9.070;2023-07-30T02:37:22;3.20;;;2.80;;
6513;SDS011;3290;47.716;9.070;2023-07-30T02:39:47;3.03;;;2.60;;
6513;SDS011;3290;47.716;9.070;2023-07-30T02:42:12;3.30;;;3.00;;
6513;SDS011;3290;47.716;9.070;2023-07-30T02:44:38;4.20;;;3.50;;
6513;SDS011;3290;47.716;9.070;2023-07-30T02:47:03;3.10;;;2.70;;
6513;SDS011;3290;47.716;9.070;2023-07-30T02:49:29;3.87;;;2.47;;
6513;SDS011;3290;47.716;9.070;2023-07-30T02:51:54;3.97;;;2.80;;
6513;SDS011;3290;47.716;9.070;2023-07-30T02:54:20;3.70;;;2.97;;
6513;SDS011;3290;47.716;9.070;2023-07-30T02:56:48;3.50;;;2.57;;
6513;SDS011;3290;47.716;9.070;2023-07-30T02:59:13;3.00;;;2.63;;
6513;SDS011;3290;47.716;9.070;2023-07-30T03:01:38;4.67;;;3.43;;
6513;SDS011;3290;47.716;9.070;2023-07-30T03:04:04;5.20;;;3.00;;
6513;SDS011;3290;47.716;9.070;2023-07-30T03:06:29;3.40;;;3.10;;
6513;SDS011;3290;47.716;9.070;2023-07-30T03:08:55;5.80;;;2.70;;
6513;SDS011;3290;47.716;9.070;2023-07-30T03:11:21;4.00;;;3.27;;
6513;SDS011;3290;47.716;9.070;2023-07-30T03:13:47;3.43;;;2.73;;
6513;SDS011;3290;47.716;9.070;2023-07-30T03:16:12;3.73;;;3.17;;
6513;SDS011;3290;47.716;9.070;2023-07-30T03:18:37;3.67;;;2.90;;
6513;SDS011;3290;47.716;9.070;2023-07-30T03:21:03;4.20;;;3.80;;
6513;SDS011;3290;47.716;9.070;2023-07-30T03:23:28;7.00;;;3.57;;
6513;SDS011;3290;47.716;9.070;2023-07-30T03:25:54;4.00;;;2.70;;
6513;SDS011;3290;47.716;9.070;2023-07-30T03:28:19;2.90;;;2.53;;
6513;SDS011;3290;47.716;9.070;2023-07-30T03:30:44;4.33;;;3.57;;
6513;SDS011;3290;47.716;9.070;2023-07-30T03:33:10;3.00;;;2.70;;
6513;SDS011;3290;47.716;9.070;2023-07-30T03:35:35;3.43;;;2.87;;
6513;SDS011;3290;47.716;9.070;2023-07-30T03:38:00;4.97;;;3.07;;
6513;SDS011;3290;47.716;9.070;2023-07-30T03:40:26;3.20;;;2.90;;
6513;SDS011;3290;47.716;9.070;2023-07-30T03:42:51;5.80;;;3.30;;
6513;SDS011;3290;47.716;9.070;2023-07-30T03:45:17;5.20;;;3.30;;
6513;SDS011;3290;47.716;9.070;2023-07-30T03:47:42;4.63;;;3.50;;
6513;SDS011;3290;47.716;9.070;2023-07-30T03:50:08;3.70;;;3.20;;
6513;SDS011;3290;47.716;9.070;2023-07-30T03:52:33;4.30;;;3.60;;
6513;SDS011;3290;47.716;9.070;2023-07-30T03:54:59;4.57;;;3.33;;
6513;SDS011;3290;47.716;9.070;2023-07-30T03:57:24;6.93;;;3.00;;
6513;SDS011;3290;47.716;9.070;2023-07-30T03:59:49;3.47;;;3.17;;
6513;SDS011;3290;47.716;9.070;2023-07-30T04:02:15;4.43;;;3.60;;
6513;SDS011;3290;47.716;9.070;2023-07-30T04:04:41;3.90;;;2.90;;
6513;SDS011;3290;47.716;9.070;2023-07-30T04:07:09;3.50;;;3.20;;
6513;SDS011;3290;47.716;9.070;2023-07-30T04:09:35;4.23;;;2.90;;
6513;SDS011;3290;47.716;9.070;2023-07-30T04:12:00;5.00;;;3.50;;
6513;SDS011;3290;47.716;9.070;2023-07-30T04:14:25;3.97;;;3.23;;
6513;SDS011;3290;47.716;9.070;2023-07-30T04:16:51;3.40;;;3.10;;
6513;SDS011;3290;47.716;9.070;2023-07-30T04:19:16;4.73;;;3.67;;
6513;SDS011;3290;47.716;9.070;2023-07-30T04:21:41;3.60;;;3.27;;
6513;SDS011;3290;47.716;9.070;2023-07-30T04:24:07;7.00;;;3.10;;
6513;SDS011;3290;47.716;9.070;2023-07-30T04:26:32;4.10;;;3.50;;
6513;SDS011;3290;47.716;9.070;2023-07-30T04:29:00;5.83;;;3.50;;
6513;SDS011;3290;47.716;9.070;2023-07-30T04:31:25;6.40;;;3.40;;
6513;SDS011;3290;47.716;9.070;2023-07-30T04:33:51;3.37;;;3.03;;
6513;SDS011;3290;47.716;9.070;2023-07-30T04:36:16;3.93;;;3.53;;
6513;SDS011;3290;47.716;9.070;2023-07-30T04:38:41;6.40;;;3.73;;
6513;SDS011;3290;47.716;9.070;2023-07-30T04:41:07;4.03;;;3.40;;
6513;SDS011;3290;47.716;9.070;2023-07-30T04:43:32;4.10;;;2.97;;
6513;SDS011;3290;47.716;9.070;2023-07-30T04:45:58;6.40;;;3.60;;
6513;SDS011;3290;47.716;9.070;2023-07-30T04:48:23;3.80;;;3.20;;
6513;SDS011;3290;47.716;9.070;2023-07-30T04:50:48;4.90;;;2.90;;
6513;SDS011;3290;47.716;9.070;2023-07-30T04:53:14;6.23;;;3.43;;
6513;SDS011;3290;47.716;9.070;2023-07-30T04:55:39;5.30;;;3.60;;
6513;SDS011;3290;47.716;9.070;2023-07-30T04:58:04;3.70;;;3.23;;
6513;SDS011;3290;47.716;9.070;2023-07-30T05:00:30;12.83;;;3.53;;
6513;SDS011;3290;47.716;9.070;2023-07-30T05:02:55;4.73;;;3.13;;
6513;SDS011;3290;47.716;9.070;2023-07-30T05:05:21;5.53;;;3.13;;
6513;SDS011;3290;47.716;9.070;2023-07-30T05:07:46;5.27;;;3.10;;
6513;SDS011;3290;47.716;9.070;2023-07-30T05:10:11;3.50;;;3.07;;
6513;SDS011;3290;47.716;9.070;2023-07-30T05:12:37;3.43;;;2.93;;
6513;SDS011;3290;47.716;9.070;2023-07-30T05:15:02;4.87;;;3.20;;
6513;SDS011;3290;47.716;9.070;2023-07-30T05:17:28;5.60;;;3.30;;
6513;SDS011;3290;47.716;9.070;2023-07-30T05:19:54;4.33;;;3.67;;
6513;SDS011;3290;47.716;9.070;2023-07-30T05:22:19;5.10;;;3.27;;
6513;SDS011;3290;47.716;9.070;2023-07-30T05:24:45;4.03;;;2.83;;
6513;SDS011;3290;47.716;9.070;2023-07-30T05:27:10;3.17;;;2.67;;
6513;SDS011;3290;47.716;9.070;2023-07-30T05:29:35;3.70;;;3.00;;
6513;SDS011;3290;47.716;9.070;2023-07-30T05:32:01;3.33;;;3.03;;
6513;SDS011;3290;47.716;9.070;2023-07-30T05:34:26;4.40;;;3.17;;
6513;SDS011;3290;47.716;9.070;2023-07-30T05:36:51;6.70;;;3.07;;
6513;SDS011;3290;47.716;9.070;2023-07-30T05:39:17;3.70;;;2.90;;
6513;SDS011;3290;47.716;9.070;2023-07-30T05:41:42;3.60;;;2.77;;
6513;SDS011;3290;47.716;9.070;2023-07-30T05:44:07;4.40;;;3.00;;
6513;SDS011;3290;47.716;9.070;2023-07-30T05:46:33;5.90;;;3.50;;
6513;SDS011;3290;47.716;9.070;2023-07-30T05:48:58;3.67;;;3.17;;
6513;SDS011;3290;47.716;9.070;2023-07-30T05:51:23;3.50;;;2.70;;
6513;SDS011;3290;47.716;9.070;2023-07-30T05:53:49;3.43;;;3.13;;
6513;SDS011;3290;47.716;9.070;2023-07-30T05:56:14;5.50;;;3.00;;
6513;SDS011;3290;47.716;9.070;2023-07-30T05:58:43;3.10;;;2.80;;
6513;SDS011;3290;47.716;9.070;2023-07-30T06:01:08;3.23;;;2.93;;
6513;SDS011;3290;47.716;9.070;2023-07-30T06:03:34;6.97;;;2.80;;
6513;SDS011;3290;47.716;9.070;2023-07-30T06:06:00;3.70;;;3.20;;
6513;SDS011;3290;47.716;9.070;2023-07-30T06:08:26;3.10;;;2.80;;
6513;SDS011;3290;47.716;9.070;2023-07-30T06:10:52;5.70;;;2.50;;
6513;SDS011;3290;47.716;9.070;2023-07-30T06:13:17;2.93;;;2.60;;
6513;SDS011;3290;47.716;9.070;2023-07-30T06:15:42;5.63;;;2.40;;
6513;SDS011;3290;47.716;9.070;2023-07-30T06:18:08;4.33;;;2.60;;
6513;SDS011;3290;47.716;9.070;2023-07-30T06:20:33;3.73;;;3.10;;
6513;SDS011;3290;47.716;9.070;2023-07-30T06:22:59;4.57;;;2.67;;
6513;SDS011;3290;47.716;9.070;2023-07-30T06:25:24;2.90;;;2.60;;
6513;SDS011;3290;47.716;9.070;2023-07-30T06:27:49;4.00;;;3.20;;
6513;SDS011;3290;47.716;9.070;2023-07-30T06:30:15;3.53;;;2.63;;
6513;SDS011;3290;47.716;9.070;2023-07-30T06:32:40;3.70;;;2.50;;
6513;SDS011;3290;47.716;9.070;2023-07-30T06:35:06;4.60;;;2.90;;
6513;SDS011;3290;47.716;9.070;2023-07-30T06:37:31;3.77;;;2.70;;
6513;SDS011;3290;47.716;9.070;2023-07-30T06:39:57;4.20;;;2.50;;
6513;SDS011;3290;47.716;9.070;2023-07-30T06:42:23;3.17;;;2.00;;
6513;SDS011;3290;47.716;9.070;2023-07-30T06:44:48;4.73;;;2.40;;
6513;SDS011;3290;47.716;9.070;2023-07-30T06:47:13;3.10;;;2.33;;
6513;SDS011;3290;47.716;9.070;2023-07-30T06:49:39;3.53;;;2.60;;
6513;SDS011;3290;47.716;9.070;2023-07-30T06:52:04;2.90;;;2.50;;
6513;SDS011;3290;47.716;9.070;2023-07-30T06:54:30;2.50;;;2.30;;
6513;SDS011;3290;47.716;9.070;2023-07-30T06:56:55;4.67;;;2.30;;
6513;SDS011;3290;47.716;9.070;2023-07-30T06:59:20;2.80;;;2.23;;
6513;SDS011;3290;47.716;9.070;2023-07-30T07:01:46;4.40;;;2.47;;
6513;SDS011;3290;47.716;9.070;2023-07-30T07:04:11;3.03;;;1.97;;
6513;SDS011;3290;47.716;9.070;2023-07-30T07:06:36;4.00;;;2.70;;
6513;SDS011;3290;47.716;9.070;2023-07-30T07:09:02;1.80;;;1.50;;
6513;SDS011;3290;47.716;9.070;2023-07-30T07:11:28;5.80;;;2.13;;
6513;SDS011;3290;47.716;9.070;2023-07-30T07:13:53;2.60;;;2.03;;
6513;SDS011;3290;47.716;9.070;2023-07-30T07:16:18;2.60;;;2.20;;
6513;SDS011;3290;47.716;9.070;2023-07-30T07:18:44;3.10;;;2.10;;
6513;SDS011;3290;47.716;9.070;2023-07-30T07:21:10;3.23;;;2.30;;
6513;SDS011;3290;47.716;9.070;2023-07-30T07:23:35;2.27;;;2.07;;
6513;SDS011;3290;47.716;9.070;2023-07-30T07:26:01;5.77;;;1.80;;
6513;SDS011;3290;47.716;9.070;2023-07-30T07:28:26;2.40;;;1.80;;
6513;SDS011;3290;47.716;9.070;2023-07-30T07:30:51;6.23;;;2.10;;
6513;SDS011;3290;47.716;9.070;2023-07-30T07:33:16;2.00;;;1.80;;
6513;SDS011;3290;47.716;9.070;2023-07-30T07:35:42;2.30;;;1.70;;
6513;SDS011;3290;47.716;9.070;2023-07-30T07:38:07;2.63;;;2.13;;
6513;SDS011;3290;47.716;9.070;2023-07-30T07:40:39;2.93;;;1.90;;
6513;SDS011;3290;47.716;9.070;2023-07-30T07:43:05;2.70;;;1.73;;
6513;SDS011;3290;47.716;9.070;2023-07-30T07:45:31;2.23;;;2.00;;
6513;SDS011;3290;47.716;9.070;2023-07-30T07:47:57;2.83;;;1.93;;
6513;SDS011;3290;47.716;9.070;2023-07-30T07:50:22;2.40;;;2.00;;
6513;SDS011;3290;47.716;9.070;2023-07-30T07:52:47;2.73;;;1.90;;
6513;SDS011;3290;47.716;9.070;2023-07-30T07:55:13;1.80;;;1.63;;
6513;SDS011;3290;47.716;9.070;2023-07-30T07:57:38;4.70;;;2.10;;
6513;SDS011;3290;47.716;9.070;2023-07-30T08:00:03;2.23;;;1.67;;
6513;SDS011;3290;47.716;9.070;2023-07-30T08:02:30;1.90;;;1.50;;
6513;SDS011;3290;47.716;9.070;2023-07-30T08:04:56;1.83;;;1.73;;
6513;SDS011;3290;47.716;9.070;2023-07-30T08:07:21;2.37;;;1.87;;
6513;SDS011;3290;47.716;9.070;2023-07-30T08:09:46;1.60;;;1.50;;
6513;SDS011;3290;47.716;9.070;2023-07-30T08:12:12;1.87;;;1.53;;
6513;SDS011;3290;47.716;9.070;2023-07-30T08:14:39;3.33;;;1.53;;
6513;SDS011;3290;47.716;9.070;2023-07-30T08:17:04;1.33;;;1.17;;
6513;SDS011;3290;47.716;9.070;2023-07-30T08:19:30;1.30;;;1.20;;
6513;SDS011;3290;47.716;9.070;2023-07-30T08:21:55;1.97;;;1.77;;
6513;SDS011;3290;47.716;9.070;2023-07-30T08:24:23;1.50;;;1.33;;
6513;SDS011;3290;47.716;9.070;2023-07-30T08:26:49;2.13;;;1.50;;
6513;SDS011;3290;47.716;9.070;2023-07-30T08:29:14;1.40;;;1.23;;
6513;SDS011;3290;47.716;9.070;2023-07-30T08:31:40;2.27;;;1.30;;
6513;SDS011;3290;47.716;9.070;2023-07-30T08:34:06;1.40;;;1.20;;
6513;SDS011;3290;47.716;9.070;2023-07-30T08:36:32;1.50;;;1.33;;
6513;SDS011;3290;47.716;9.070;2023-07-30T08:38:57;1.40;;;1.27;;
6513;SDS011;3290;47.716;9.070;2023-07-30T08:41:23;2.40;;;1.60;;
6513;SDS011;3290;47.716;9.070;2023-07-30T08:43:49;1.60;;;1.50;;
6513;SDS011;3290;47.716;9.070;2023-07-30T08:46:16;1.30;;;1.20;;
6513;SDS011;3290;47.716;9.070;2023-07-30T08:48:42;3.00;;;1.30;;
6513;SDS011;3290;47.716;9.070;2023-07-30T08:51:08;2.57;;;1.93;;
6513;SDS011;3290;47.716;9.070;2023-07-30T08:53:34;1.40;;;1.27;;
6513;SDS011;3290;47.716;9.070;2023-07-30T08:56:00;6.20;;;1.40;;
6513;SDS011;3290;47.716;9.070;2023-07-30T08:58:26;3.33;;;1.57;;
6513;SDS011;3290;47.716;9.070;2023-07-30T09:00:53;1.83;;;1.40;;
6513;SDS011;3290;47.716;9.070;2023-07-30T09:03:20;3.30;;;1.60;;
6513;SDS011;3290;47.716;9.070;2023-07-30T09:05:49;1.43;;;1.33;;
6513;SDS011;3290;47.716;9.070;2023-07-30T09:08:15;1.60;;;1.20;;
6513;SDS011;3290;47.716;9.070;2023-07-30T09:10:42;3.43;;;1.37;;
6513;SDS011;3290;47.716;9.070;2023-07-30T09:13:07;1.50;;;1.40;;
6513;SDS011;3290;47.716;9.070;2023-07-30T09:15:34;3.27;;;1.60;;
6513;SDS011;3290;47.716;9.070;2023-07-30T09:18:05;1.57;;;1.47;;
6513;SDS011;3290;47.716;9.070;2023-07-30T09:20:38;2.23;;;1.60;;
6513;SDS011;3290;47.716;9.070;2023-07-30T09:23:05;2.10;;;1.40;;
6513;SDS011;3290;47.716;9.070;2023-07-30T09:25:32;1.97;;;1.70;;
6513;SDS011;3290;47.716;9.070;2023-07-30T09:27:57;1.90;;;1.57;;
6513;SDS011;3290;47.716;9.070;2023-07-30T09:30:24;4.20;;;1.80;;
6513;SDS011;3290;47.716;9.070;2023-07-30T09:32:54;1.50;;;1.40;;
6513;SDS011;3290;47.716;9.070;2023-07-30T09:35:21;3.67;;;1.53;;
6513;SDS011;3290;47.716;9.070;2023-07-30T09:37:49;4.77;;;1.80;;
6513;SDS011;3290;47.716;9.070;2023-07-30T09:40:15;1.53;;;1.43;;
6513;SDS011;3290;47.716;9.070;2023-07-30T09:42:46;1.40;;;1.30;;
6513;SDS011;3290;47.716;9.070;2023-07-30T09:45:23;1.60;;;1.50;;
6513;SDS011;3290;47.716;9.070;2023-07-30T09:47:50;3.20;;;2.03;;
6513;SDS011;3290;47.716;9.070;2023-07-30T09:50:16;2.37;;;1.80;;
6513;SDS011;3290;47.716;9.070;2023-07-30T09:52:42;1.50;;;1.40;;
6513;SDS011;3290;47.716;9.070;2023-07-30T09:55:09;2.73;;;1.80;;
6513;SDS011;3290;47.716;9.070;2023-07-30T09:57:36;3.07;;;1.73;;
6513;SDS011;3290;47.716;9.070;2023-07-30T10:00:02;2.70;;;2.00;;
6513;SDS011;3290;47.716;9.070;2023-07-30T10:02:29;1.70;;;1.37;;
6513;SDS011;3290;47.716;9.070;2023-07-30T10:04:59;3.03;;;1.50;;
6513;SDS011;3290;47.716;9.070;2023-07-30T10:07:26;6.80;;;1.80;;
6513;SDS011;3290;47.716;9.070;2023-07-30T10:09:54;2.80;;;1.80;;
6513;SDS011;3290;47.716;9.070;2023-07-30T10:12:24;4.50;;;1.70;;
6513;SDS011;3290;47.716;9.070;2023-07-30T10:14:53;1.70;;;1.60;;
6513;SDS011;3290;47.716;9.070;2023-07-30T10:17:19;2.60;;;1.80;;
6513;SDS011;3290;47.716;9.070;2023-07-30T10:19:48;4.83;;;2.07;;
6513;SDS011;3290;47.716;9.070;2023-07-30T10:24:55;4.70;;;1.80;;
6513;SDS011;3290;47.716;9.070;2023-07-30T10:27:25;2.40;;;1.63;;
6513;SDS011;3290;47.716;9.070;2023-07-30T10:32:42;2.60;;;1.77;;
6513;SDS011;3290;47.716;9.070;2023-07-30T10:38:13;2.10;;;1.70;;
6513;SDS011;3290;47.716;9.070;2023-07-30T10:40:46;2.03;;;1.80;;
6513;SDS011;3290;47.716;9.070;2023-07-30T10:43:28;6.00;;;1.53;;
6513;SDS011;3290;47.716;9.070;2023-07-30T10:45:55;2.40;;;1.60;;
6513;SDS011;3290;47.716;9.070;2023-07-30T10:48:29;2.67;;;1.50;;
6513;SDS011;3290;47.716;9.070;2023-07-30T10:50:56;3.20;;;2.10;;
6513;SDS011;3290;47.716;9.070;2023-07-30T10:53:21;2.00;;;1.80;;
6513;SDS011;3290;47.716;9.070;2023-07-30T10:55:46;3.20;;;1.80;;
6513;SDS011;3290;47.716;9.070;2023-07-30T10:58:13;1.87;;;1.43;;
6513;SDS011;3290;47.716;9.070;2023-07-30T11:00:39;3.77;;;2.13;;
6513;SDS011;3290;47.716;9.070;2023-07-30T11:03:04;2.00;;;1.67;;
6513;SDS011;3290;47.716;9.070;2023-07-30T11:05:30;2.73;;;1.90;;
6513;SDS011;3290;47.716;9.070;2023-07-30T11:07:55;2.53;;;1.60;;
6513;SDS011;3290;47.716;9.070;2023-07-30T11:10:21;2.00;;;1.70;;
6513;SDS011;3290;47.716;9.070;2023-07-30T11:12:48;2.80;;;1.80;;
6513;SDS011;3290;47.716;9.070;2023-07-30T11:15:17;2.33;;;2.13;;
6513;SDS011;3290;47.716;9.070;2023-07-30T11:17:42;2.67;;;1.90;;
6513;SDS011;3290;47.716;9.070;2023-07-30T11:20:26;4.60;;;1.77;;
6513;SDS011;3290;47.716;9.070;2023-07-30T11:22:52;7.27;;;1.80;;
6513;SDS011;3290;47.716;9.070;2023-07-30T11:25:18;2.47;;;1.60;;
6513;SDS011;3290;47.716;9.070;2023-07-30T11:27:47;2.00;;;1.80;;
6513;SDS011;3290;47.716;9.070;2023-07-30T11:30:14;2.50;;;1.83;;
6513;SDS011;3290;47.716;9.070;2023-07-30T11:32:39;5.00;;;1.80;;
6513;SDS011;3290;47.716;9.070;2023-07-30T11:35:07;2.20;;;1.63;;
6513;SDS011;3290;47.716;9.070;2023-07-30T11:37:32;4.23;;;1.80;;
6513;SDS011;3290;47.716;9.070;2023-07-30T11:39:58;2.67;;;1.90;;
6513;SDS011;3290;47.716;9.070;2023-07-30T11:42:24;2.77;;;1.80;;
6513;SDS011;3290;47.716;9.070;2023-07-30T11:44:50;1.73;;;1.60;;
6513;SDS011;3290;47.716;9.070;2023-07-30T11:47:22;3.07;;;1.40;;
6513;SDS011;3290;47.716;9.070;2023-07-30T11:49:57;3.60;;;1.87;;
6513;SDS011;3290;47.716;9.070;2023-07-30T11:52:23;1.73;;;1.60;;
6513;SDS011;3290;47.716;9.070;2023-07-30T11:54:59;2.20;;;1.87;;
6513;SDS011;3290;47.716;9.070;2023-07-30T11:57:32;2.83;;;2.07;;
6513;SDS011;3290;47.716;9.070;2023-07-30T11:59:59;2.67;;;2.30;;
6513;SDS011;3290;47.716;9.070;2023-07-30T12:02:24;2.00;;;1.67;;
6513;SDS011;3290;47.716;9.070;2023-07-30T12:04:50;2.20;;;1.67;;
6513;SDS011;3290;47.716;9.070;2023-07-30T12:07:22;2.40;;;1.60;;
6513;SDS011;3290;47.716;9.070;2023-07-30T12:09:49;3.50;;;2.17;;
6513;SDS011;3290;47.716;9.070;2023-07-30T12:12:14;2.20;;;1.60;;
6513;SDS011;3290;47.716;9.070;2023-07-30T12:17:14;9.20;;;2.10;;
6513;SDS011;3290;47.716;9.070;2023-07-30T12:19:39;2.43;;;1.83;;
6513;SDS011;3290;47.716;9.070;2023-07-30T12:22:05;2.00;;;1.60;;
6513;SDS011;3290;47.716;9.070;2023-07-30T12:24:31;3.20;;;1.93;;
6513;SDS011;3290;47.716;9.070;2023-07-30T12:26:56;1.70;;;1.40;;
6513;SDS011;3290;47.716;9.070;2023-07-30T12:29:21;2.60;;;1.73;;
6513;SDS011;3290;47.716;9.070;2023-07-30T12:31:47;3.83;;;1.60;;
6513;SDS011;3290;47.716;9.070;2023-07-30T12:34:13;2.50;;;1.50;;
6513;SDS011;3290;47.716;9.070;2023-07-30T12:36:38;2.60;;;2.10;;
6513;SDS011;3290;47.716;9.070;2023-07-30T12:39:04;3.80;;;2.07;;
6513;SDS011;3290;47.716;9.070;2023-07-30T12:41:29;2.30;;;2.00;;
6513;SDS011;3290;47.716;9.070;2023-07-30T12:43:55;2.97;;;2.50;;
6513;SDS011;3290;47.716;9.070;2023-07-30T12:46:22;2.10;;;1.63;;
6513;SDS011;3290;47.716;9.070;2023-07-30T12:48:47;2.10;;;1.80;;
6513;SDS011;3290;47.716;9.070;2023-07-30T12:51:13;4.53;;;1.67;;
6513;SDS011;3290;47.716;9.070;2023-07-30T12:53:38;1.87;;;1.47;;
6513;SDS011;3290;47.716;9.070;2023-07-30T12:56:04;4.30;;;1.67;;
6513;SDS011;3290;47.716;9.070;2023-07-30T12:58:29;2.20;;;1.40;;
6513;SDS011;3290;47.716;9.070;2023-07-30T13:00:54;2.10;;;1.63;;
6513;SDS011;3290;47.716;9.070;2023-07-30T13:03:20;2.00;;;1.80;;
6513;SDS011;3290;47.716;9.070;2023-07-30T13:05:45;3.83;;;2.10;;
6513;SDS011;3290;47.716;9.070;2023-07-30T13:08:11;2.50;;;2.00;;
6513;SDS011;3290;47.716;9.070;2023-07-30T13:10:36;4.03;;;2.13;;
6513;SDS011;3290;47.716;9.070;2023-07-30T13:13:01;3.20;;;2.10;;
6513;SDS011;3290;47.716;9.070;2023-07-30T13:15:27;2.97;;;1.73;;
6513;SDS011;3290;47.716;9.070;2023-07-30T13:17:53;1.60;;;1.50;;
6513;SDS011;3290;47.716;9.070;2023-07-30T13:20:18;2.10;;;1.90;;
6513;SDS011;3290;47.716;9.070;2023-07-30T13:22:44;2.10;;;1.90;;
6513;SDS011;3290;47.716;9.070;2023-07-30T13:25:09;2.70;;;1.67;;
6513;SDS011;3290;47.716;9.070;2023-07-30T13:27:35;1.60;;;1.50;;
6513;SDS011;3290;47.716;9.070;2023-07-30T13:30:00;2.30;;;1.67;;
6513;SDS011;3290;47.716;9.070;2023-07-30T13:32:26;2.10;;;1.67;;
6513;SDS011;3290;47.716;9.070;2023-07-30T13:34:51;3.70;;;1.77;;
6513;SDS011;3290;47.716;9.070;2023-07-30T13:37:16;2.63;;;1.50;;
6513;SDS011;3290;47.716;9.070;2023-07-30T13:39:42;1.60;;;1.47;;
6513;SDS011;3290;47.716;9.070;2023-07-30T13:42:07;3.60;;;2.20;;
6513;SDS011;3290;47.716;9.070;2023-07-30T13:44:32;2.13;;;1.53;;
6513;SDS011;3290;47.716;9.070;2023-07-30T13:46:58;2.20;;;1.80;;
6513;SDS011;3290;47.716;9.070;2023-07-30T13:49:23;3.03;;;2.00;;
6513;SDS011;3290;47.716;9.070;2023-07-30T13:51:49;1.53;;;1.30;;
6513;SDS011;3290;47.716;9.070;2023-07-30T13:54:14;2.40;;;1.30;;
6513;SDS011;3290;47.716;9.070;2023-07-30T13:56:40;3.53;;;1.60;;
6513;SDS011;3290;47.716;9.070;2023-07-30T13:59:05;2.20;;;1.80;;
6513;SDS011;3290;47.716;9.070;2023-07-30T14:01:30;3.73;;;1.63;;
6513;SDS011;3290;47.716;9.070;2023-07-30T14:03:56;3.30;;;1.90;;
6513;SDS011;3290;47.716;9.070;2023-07-30T14:06:21;1.57;;;1.20;;
6513;SDS011;3290;47.716;9.070;2023-07-30T14:08:47;2.33;;;1.80;;
6513;SDS011;3290;47.716;9.070;2023-07-30T14:11:13;6.00;;;1.70;;
6513;SDS011;3290;47.716;9.070;2023-07-30T14:13:38;2.37;;;1.70;;
6513;SDS011;3290;47.716;9.070;2023-07-30T14:16:04;2.67;;;1.60;;
6513;SDS011;3290;47.716;9.070;2023-07-30T14:18:29;2.00;;;1.50;;
6513;SDS011;3290;47.716;9.070;2023-07-30T14:20:54;2.57;;;2.10;;
6513;SDS011;3290;47.716;9.070;2023-07-30T14:23:20;2.60;;;1.60;;
6513;SDS011;3290;47.716;9.070;2023-07-30T14:25:45;3.33;;;1.80;;
6513;SDS011;3290;47.716;9.070;2023-07-30T14:28:10;2.13;;;1.93;;
6513;SDS011;3290;47.716;9.070;2023-07-30T14:30:36;2.20;;;2.00;;
6513;SDS011;3290;47.716;9.070;2023-07-30T14:33:03;2.40;;;1.60;;
6513;SDS011;3290;47.716;9.070;2023-07-30T14:35:28;2.47;;;1.73;;
6513;SDS011;3290;47.716;9.070;2023-07-30T14:37:54;2.57;;;2.00;;
6513;SDS011;3290;47.716;9.070;2023-07-30T14:40:19;3.37;;;1.90;;
6513;SDS011;3290;47.716;9.070;2023-07-30T14:42:45;2.10;;;1.90;;
6513;SDS011;3290;47.716;9.070;2023-07-30T14:45:11;3.33;;;2.20;;
6513;SDS011;3290;47.716;9.070;2023-07-30T14:47:36;2.13;;;1.80;;
6513;SDS011;3290;47.716;9.070;2023-07-30T14:50:03;3.30;;;1.60;;
6513;SDS011;3290;47.716;9.070;2023-07-30T14:52:28;2.50;;;1.70;;
6513;SDS011;3290;47.716;9.070;2023-07-30T14:54:54;2.07;;;1.77;;
6513;SDS011;3290;47.716;9.070;2023-07-30T14:57:19;2.87;;;1.70;;
6513;SDS011;3290;47.716;9.070;2023-07-30T14:59:45;3.50;;;1.80;;
6513;SDS011;3290;47.716;9.070;2023-07-30T15:02:11;2.47;;;1.60;;
6513;SDS011;3290;47.716;9.070;2023-07-30T15:04:38;3.47;;;2.10;;
6513;SDS011;3290;47.716;9.070;2023-07-30T15:07:03;2.10;;;1.90;;
6513;SDS011;3290;47.716;9.070;2023-07-30T15:09:29;2.90;;;1.90;;
6513;SDS011;3290;47.716;9.070;2023-07-30T15:11:59;2.60;;;1.93;;
6513;SDS011;3290;47.716;9.070;2023-07-30T15:14:25;2.27;;;1.83;;
6513;SDS011;3290;47.716;9.070;2023-07-30T15:16:50;2.87;;;1.60;;
6513;SDS011;3290;47.716;9.070;2023-07-30T15:19:16;3.70;;;2.00;;